createdAt,value
2018-06-27T00:02:48.781Z,97091.55
2018-06-27T00:06:14.606Z,97091.17
2018-06-27T00:09:39.991Z,97093.67
2018-06-27T00:13:04.937Z,97082.80
2018-06-27T00:16:29.798Z,97088.70
2018-06-27T00:19:54.553Z,97086.95
2018-06-27T00:23:19.058Z,97087.52
2018-06-27T00:26:43.859Z,97087.55
2018-06-27T00:30:08.658Z,97084.92
2018-06-27T00:33:33.328Z,97083.80
2018-06-27T00:36:58.060Z,97083.05
2018-06-27T00:40:23.763Z,97084.80
2018-06-27T00:43:48.525Z,97085.21
2018-06-27T00:47:13.194Z,97079.28
2018-06-27T00:50:38.104Z,97080.81
2018-06-27T00:54:06.899Z,97070.94
2018-06-27T00:57:31.555Z,97075.53
2018-06-27T01:00:56.251Z,97073.72
2018-06-27T01:04:21.010Z,97072.11
2018-06-27T01:07:45.849Z,97068.44
2018-06-27T01:11:10.647Z,97071.81
2018-06-27T01:14:35.387Z,97063.25
2018-06-27T01:18:00.085Z,97060.70
2018-06-27T01:21:24.838Z,97060.80
2018-06-27T01:24:49.455Z,97052.77
2018-06-27T01:28:14.243Z,97052.55
2018-06-27T01:31:38.967Z,97053.44
2018-06-27T01:35:03.644Z,97053.11
2018-06-27T01:38:28.367Z,97053.22
2018-06-27T01:41:53.136Z,97060.03
2018-06-27T01:45:17.876Z,97064.95
2018-06-27T01:48:42.631Z,97062.33
2018-06-27T01:52:07.342Z,97066.17
2018-06-27T01:55:32.166Z,97062.72
2018-06-27T01:58:56.968Z,97069.53
2018-06-27T02:02:21.855Z,97070.25
2018-06-27T02:05:46.591Z,97069.14
2018-06-27T02:09:11.775Z,97069.72
2018-06-27T02:12:36.485Z,97070.78
2018-06-27T02:16:01.279Z,97069.61
2018-06-27T02:19:26.000Z,97065.75
2018-06-27T02:22:50.757Z,97064.66
2018-06-27T02:26:15.661Z,97065.50
2018-06-27T02:29:40.461Z,97068.52
2018-06-27T02:33:05.269Z,97064.19
2018-06-27T02:36:29.961Z,97066.36
2018-06-27T02:39:54.636Z,97066.16
2018-06-27T02:43:19.668Z,97061.25
2018-06-27T02:46:44.391Z,97068.78
2018-06-27T02:50:09.090Z,97064.45
2018-06-27T02:53:37.579Z,97064.85
2018-06-27T02:57:02.442Z,97075.38
2018-06-27T03:00:27.264Z,97065.38
2018-06-27T03:03:52.112Z,97073.31
2018-06-27T03:07:16.810Z,97077.52
2018-06-27T03:10:41.663Z,97074.73
2018-06-27T03:14:06.665Z,97073.83
2018-06-27T03:17:32.686Z,97075.38
2018-06-27T03:20:57.593Z,97069.52
2018-06-27T03:24:22.039Z,97074.43
2018-06-27T03:27:47.799Z,97078.73
2018-06-27T03:31:12.701Z,97077.75
2018-06-27T03:34:37.605Z,97087.11
2018-06-27T03:38:02.145Z,97085.66
2018-06-27T03:41:27.162Z,97082.33
2018-06-27T03:44:52.213Z,97089.82
2018-06-27T03:48:17.229Z,97086.28
2018-06-27T03:51:42.231Z,97092.13
2018-06-27T03:55:07.112Z,97093.31
2018-06-27T03:58:31.967Z,97092.47
2018-06-27T04:01:56.897Z,97098.31
2018-06-27T04:05:21.850Z,97102.27
2018-06-27T04:08:47.973Z,97112.06
2018-06-27T04:12:12.937Z,97111.87
2018-06-27T04:15:38.888Z,97118.03
2018-06-27T04:19:03.741Z,97115.06
2018-06-27T04:22:33.169Z,97117.64
2018-06-27T04:25:58.036Z,97116.88
2018-06-27T04:29:22.773Z,97118.53
2018-06-27T04:32:47.512Z,97122.45
2018-06-27T04:36:12.320Z,97108.61
2018-06-27T04:39:37.927Z,97114.80
2018-06-27T04:43:02.411Z,97113.83
2018-06-27T04:46:27.354Z,97120.16
2018-06-27T04:49:53.500Z,97115.52
2018-06-27T04:53:18.327Z,97111.84
2018-06-27T04:56:43.201Z,97118.06
2018-06-27T05:00:08.159Z,97120.63
2018-06-27T05:03:32.911Z,97123.45
2018-06-27T05:07:00.531Z,97119.37
2018-06-27T05:10:25.509Z,97121.03
2018-06-27T05:13:50.589Z,97122.02
2018-06-27T05:17:15.339Z,97126.98
2018-06-27T05:20:40.136Z,97126.33
2018-06-27T05:24:06.805Z,97134.36
2018-06-27T05:27:31.963Z,97139.88
2018-06-27T05:30:59.716Z,97146.52
2018-06-27T05:34:24.787Z,97142.74
2018-06-27T05:37:49.801Z,97148.92
2018-06-27T05:41:14.767Z,97152.16
2018-06-27T05:44:39.912Z,97151.92
2018-06-27T05:48:04.944Z,97156.27
2018-06-27T05:51:30.253Z,97147.25
2018-06-27T05:55:00.151Z,97155.63
2018-06-27T05:58:29.946Z,97155.91
2018-06-27T06:01:57.983Z,97155.51
2018-06-27T06:05:24.060Z,97150.82
2018-06-27T06:08:49.191Z,97145.39
2018-06-27T06:12:14.343Z,97143.80
2018-06-27T06:15:39.566Z,97140.88
2018-06-27T06:19:04.641Z,97139.57
2018-06-27T06:22:30.904Z,97139.70
2018-06-27T06:25:55.477Z,97136.16
2018-06-27T06:29:20.445Z,97139.80
2018-06-27T06:32:45.594Z,97140.48
2018-06-27T06:36:10.607Z,97138.22
2018-06-27T06:39:35.404Z,97139.88
2018-06-27T06:43:00.057Z,97136.67
2018-06-27T06:46:25.044Z,97126.72
2018-06-27T06:49:50.337Z,97136.31
2018-06-27T06:53:16.441Z,97142.09
2018-06-27T06:56:41.449Z,97139.58
2018-06-27T07:00:06.762Z,97138.80
2018-06-27T07:03:31.673Z,97132.49
2018-06-27T07:06:57.716Z,97127.37
2018-06-27T07:10:22.805Z,97129.44
2018-06-27T07:13:47.753Z,97135.20
2018-06-27T07:17:12.379Z,97130.50
2018-06-27T07:20:37.321Z,97146.12
2018-06-27T07:24:02.506Z,97147.53
2018-06-27T07:27:27.562Z,97138.14
2018-06-27T07:30:52.572Z,97134.53
2018-06-27T07:34:17.767Z,97136.23
2018-06-27T07:37:42.700Z,97134.46
2018-06-27T07:41:07.772Z,97121.80
2018-06-27T07:44:32.848Z,97116.46
2018-06-27T07:47:57.739Z,97116.79
2018-06-27T07:51:22.318Z,97129.81
2018-06-27T07:54:47.318Z,97118.82
2018-06-27T07:58:13.662Z,97112.34
2018-06-27T08:01:38.676Z,97114.83
2018-06-27T08:05:03.663Z,97119.06
2018-06-27T08:08:28.782Z,97110.91
2018-06-27T08:11:53.579Z,97108.37
2018-06-27T08:15:19.542Z,97110.50
2018-06-27T08:18:45.061Z,97108.02
2018-06-27T08:22:10.215Z,97092.13
2018-06-27T08:25:35.320Z,97098.28
2018-06-27T08:29:00.304Z,97101.01
2018-06-27T08:32:25.427Z,97097.47
2018-06-27T08:35:50.194Z,97080.09
2018-06-27T08:39:15.282Z,97074.00
2018-06-27T08:42:39.860Z,97070.40
2018-06-27T08:46:04.989Z,97074.37
2018-06-27T08:49:29.970Z,97067.84
2018-06-27T08:52:54.988Z,97070.91
2018-06-27T08:56:19.972Z,97061.67
2018-06-27T08:59:45.198Z,97065.56
2018-06-27T09:03:10.017Z,97065.06
2018-06-27T09:06:34.841Z,97060.26
2018-06-27T09:09:59.973Z,97055.77
2018-06-27T09:13:24.903Z,97063.41
2018-06-27T09:16:49.971Z,97050.97
2018-06-27T09:20:14.888Z,97048.95
2018-06-27T09:23:39.882Z,97048.45
2018-06-27T09:27:04.734Z,97051.11
2018-06-27T09:30:30.539Z,97051.11
2018-06-27T09:33:55.542Z,97063.46
2018-06-27T09:37:20.390Z,97037.92
2018-06-27T09:40:45.306Z,97040.70
2018-06-27T09:44:10.310Z,97039.22
2018-06-27T09:47:35.141Z,97047.14
2018-06-27T09:50:59.888Z,97037.09
2018-06-27T09:54:25.706Z,97036.17
2018-06-27T09:57:50.187Z,97042.33
2018-06-27T10:01:15.016Z,97040.73
2018-06-27T10:04:40.050Z,97025.77
2018-06-27T10:08:05.941Z,97022.27
2018-06-27T10:11:31.527Z,97027.66
2018-06-27T10:14:56.499Z,97020.41
2018-06-27T10:18:21.871Z,97024.73
2018-06-27T10:21:47.225Z,97018.31
2018-06-27T10:25:12.336Z,97018.20
2018-06-27T10:28:38.558Z,97032.81
2018-06-27T10:32:03.457Z,97020.77
2018-06-27T10:35:29.535Z,97019.28
2018-06-27T10:38:54.427Z,97018.23
2018-06-27T10:42:19.291Z,97016.47
2018-06-27T10:45:43.842Z,97018.14
2018-06-27T10:49:08.568Z,97010.80
2018-06-27T10:52:33.516Z,97006.70
2018-06-27T10:55:58.396Z,97008.97
2018-06-27T10:59:23.058Z,97003.30
2018-06-27T11:02:47.900Z,96996.19
2018-06-27T11:06:12.815Z,96991.30
2018-06-27T11:09:37.437Z,96993.37
2018-06-27T11:13:04.504Z,96989.95
2018-06-27T11:16:30.111Z,96996.86
2018-06-27T11:19:55.980Z,96999.58
2018-06-27T11:23:23.894Z,96994.07
2018-06-27T11:26:49.344Z,96983.63
2018-06-27T11:30:16.578Z,97002.23
2018-06-27T11:33:42.941Z,97005.19
2018-06-27T11:37:07.811Z,96997.88
2018-06-27T11:40:33.430Z,96983.14
2018-06-27T11:43:59.970Z,96976.71
2018-06-27T11:47:24.901Z,96986.53
2018-06-27T11:50:50.712Z,96983.08
2018-06-27T11:54:16.255Z,96979.40
2018-06-27T11:57:43.887Z,96979.27
2018-06-27T12:01:08.683Z,96970.45
2018-06-27T12:04:33.202Z,96977.02
2018-06-27T12:07:58.640Z,96959.91
2018-06-27T12:11:24.112Z,96963.32
2018-06-27T12:14:48.867Z,96950.60
2018-06-27T12:18:13.657Z,96941.02
2018-06-27T12:21:39.436Z,96942.88
2018-06-27T12:25:04.195Z,96943.51
2018-06-27T12:28:29.524Z,96938.70
2018-06-27T12:31:54.355Z,96940.09
2018-06-27T12:35:20.192Z,96936.48
2018-06-27T12:38:46.961Z,96945.41
2018-06-27T12:42:11.884Z,96938.14
2018-06-27T12:45:36.749Z,96933.45
2018-06-27T12:49:01.656Z,96927.03
2018-06-27T12:52:26.539Z,96925.73
2018-06-27T12:55:51.508Z,96925.41
2018-06-27T12:59:16.565Z,96911.95
2018-06-27T13:02:41.665Z,96915.92
2018-06-27T13:06:11.769Z,96911.98
2018-06-27T13:09:36.599Z,96909.11
2018-06-27T13:13:01.526Z,96899.34
2018-06-27T13:16:26.606Z,96908.42
2018-06-27T13:19:51.440Z,96901.28
2018-06-27T13:23:16.391Z,96887.98
2018-06-27T13:26:41.427Z,96890.17
2018-06-27T13:30:06.847Z,96909.62
2018-06-27T13:33:32.057Z,96897.84
2018-06-27T13:36:56.958Z,96886.56
2018-06-27T13:40:22.187Z,96876.23
2018-06-27T13:43:47.230Z,96872.94
2018-06-27T13:47:13.110Z,96879.88
2018-06-27T13:50:37.985Z,96876.09
2018-06-27T13:54:02.962Z,96883.47
2018-06-27T13:57:28.948Z,96877.94
2018-06-27T14:00:53.724Z,96869.19
2018-06-27T14:04:18.421Z,96864.59
2018-06-27T14:07:43.236Z,96850.92
2018-06-27T14:11:08.035Z,96872.62
2018-06-27T14:14:32.899Z,96862.62
2018-06-27T14:17:58.054Z,96855.30
2018-06-27T14:21:22.938Z,96848.36
2018-06-27T14:24:47.863Z,96855.95
2018-06-27T14:28:13.394Z,96851.76
2018-06-27T14:36:14.773Z,96847.34
2018-06-27T14:39:44.640Z,96844.72
2018-06-27T14:43:10.562Z,96850.52
2018-06-27T14:46:36.119Z,96841.20
2018-06-27T14:50:00.516Z,96834.88
2018-06-27T14:53:24.886Z,96834.49
2018-06-27T14:56:49.664Z,96836.34
2018-06-27T15:00:14.562Z,96824.53
2018-06-27T15:03:39.371Z,96840.13
2018-06-27T15:07:04.494Z,96833.48
2018-06-27T15:10:29.402Z,96833.78
2018-06-27T15:13:53.872Z,96839.45
2018-06-27T15:17:18.778Z,96827.12
2018-06-27T15:20:43.885Z,96821.78
2018-06-27T15:24:08.714Z,96820.42
2018-06-27T15:27:33.756Z,96809.33
2018-06-27T15:30:58.700Z,96808.82
2018-06-27T15:34:23.614Z,96810.02
2018-06-27T15:37:48.503Z,96812.53
2018-06-27T15:41:14.341Z,96816.52
2018-06-27T15:44:39.208Z,96816.42
2018-06-27T15:48:04.154Z,96819.75
2018-06-27T15:51:29.046Z,96823.80
2018-06-27T15:54:53.852Z,96828.23
2018-06-27T15:58:18.599Z,96835.78
2018-06-27T16:01:43.487Z,96826.20
2018-06-27T16:05:08.075Z,96827.48
2018-06-27T16:08:33.263Z,96819.84
2018-06-27T16:11:57.968Z,96823.30
2018-06-27T16:15:22.776Z,96825.75
2018-06-27T16:18:47.466Z,96817.36
2018-06-27T16:22:11.944Z,96826.66
2018-06-27T16:25:36.760Z,96823.77
2018-06-27T16:29:01.556Z,96828.61
2018-06-27T16:32:26.314Z,96838.29
2018-06-27T16:35:51.439Z,96835.55
2018-06-27T16:39:16.308Z,96841.40
2018-06-27T16:42:41.283Z,96841.30
2018-06-27T16:46:06.340Z,96841.39
2018-06-27T16:49:31.195Z,96842.67
2018-06-27T16:52:56.231Z,96841.92
2018-06-27T16:56:21.145Z,96838.08
2018-06-27T16:59:46.276Z,96847.21
2018-06-27T17:03:11.113Z,96845.84
2018-06-27T17:06:37.315Z,96837.32
2018-06-27T17:10:02.057Z,96841.12
2018-06-27T17:13:26.920Z,96845.98
2018-06-27T17:16:51.477Z,96845.97
2018-06-27T17:20:17.096Z,96848.26
2018-06-27T17:23:44.319Z,96845.72
2018-06-27T17:27:09.167Z,96841.23
2018-06-27T17:30:34.806Z,96848.41
2018-06-27T17:33:59.742Z,96845.78
2018-06-27T17:37:24.967Z,96847.42
2018-06-27T17:40:49.755Z,96846.55
2018-06-27T17:44:14.752Z,96844.81
2018-06-27T17:47:39.626Z,96844.53
2018-06-27T17:51:04.674Z,96836.97
2018-06-27T17:54:30.200Z,96839.75
2018-06-27T17:57:55.027Z,96842.85
2018-06-27T18:01:21.223Z,96843.88
2018-06-27T18:04:46.210Z,96850.66
2018-06-27T18:08:10.971Z,96846.98
2018-06-27T18:11:36.105Z,96846.55
2018-06-27T18:15:00.846Z,96847.03
2018-06-27T18:18:25.711Z,96854.53
2018-06-27T18:21:50.559Z,96850.63
2018-06-27T18:25:15.762Z,96843.01
2018-06-27T18:28:43.504Z,96851.14
2018-06-27T18:32:08.444Z,96849.33
2018-06-27T18:35:33.499Z,96843.06
2018-06-27T18:38:58.971Z,96844.43
2018-06-27T18:42:24.641Z,96846.09
2018-06-27T18:45:50.643Z,96843.09
2018-06-27T18:49:15.407Z,96839.55
2018-06-27T18:52:40.808Z,96841.98
2018-06-27T18:56:05.357Z,96844.23
2018-06-27T18:59:31.381Z,96840.78
2018-06-27T19:02:56.290Z,96843.21
2018-06-27T19:06:21.348Z,96839.31
2018-06-27T19:09:46.577Z,96840.58
2018-06-27T19:13:11.733Z,96840.88
2018-06-27T19:16:41.044Z,96841.07
2018-06-27T19:20:07.420Z,96844.73
2018-06-27T19:23:32.085Z,96839.70
2018-06-27T19:26:56.899Z,96838.33
2018-06-27T19:30:21.350Z,96846.25
2018-06-27T19:33:46.147Z,96841.50
2018-06-27T19:37:10.813Z,96846.22
2018-06-27T19:40:36.114Z,96844.98
2018-06-27T19:44:01.026Z,96853.41
2018-06-27T19:47:26.751Z,96855.34
2018-06-27T19:50:51.557Z,96857.58
2018-06-27T19:54:16.300Z,96864.84
2018-06-27T19:57:41.057Z,96867.43
2018-06-27T20:01:06.760Z,96880.03
2018-06-27T20:04:31.176Z,96875.46
2018-06-27T20:07:56.153Z,96878.59
2018-06-27T20:11:20.665Z,96885.78
2018-06-27T20:14:45.521Z,96883.00
2018-06-27T20:18:10.152Z,96879.94
2018-06-27T20:21:35.027Z,96887.88
2018-06-27T21:47:59.018Z,96915.95
2018-06-27T21:51:23.745Z,96915.61
2018-06-27T21:54:48.418Z,96914.34
2018-06-27T21:58:14.398Z,96928.30
2018-06-27T22:01:39.117Z,96918.39
2018-06-27T22:05:03.975Z,96921.41
2018-06-27T22:08:28.342Z,96929.15
2018-06-27T22:11:53.194Z,96929.30
2018-06-27T22:15:18.105Z,96922.00
2018-06-27T22:18:43.194Z,96920.84
2018-06-27T22:22:07.978Z,96926.72
2018-06-27T22:25:32.803Z,96923.94
2018-06-27T22:28:57.590Z,96923.58
2018-06-27T22:32:22.375Z,96925.61
2018-06-27T22:35:47.155Z,96914.17
2018-06-27T22:39:12.341Z,96920.14
2018-06-27T22:42:37.069Z,96921.95
2018-06-27T22:46:01.846Z,96916.34
2018-06-27T22:49:26.581Z,96917.52
2018-06-27T22:52:51.462Z,96916.34
2018-06-27T22:56:16.160Z,96917.29
2018-06-27T22:59:40.946Z,96914.20
2018-06-27T23:03:05.363Z,96909.28
2018-06-27T23:06:30.143Z,96908.91
2018-06-27T23:09:54.838Z,96907.59
2018-06-27T23:13:19.517Z,96912.36
2018-06-27T23:16:44.144Z,96921.08
2018-06-27T23:20:08.991Z,96916.30
2018-06-27T23:23:33.756Z,96923.39
2018-06-27T23:26:58.509Z,96914.36
2018-06-27T23:30:22.475Z,96912.67
2018-06-27T23:33:47.244Z,96907.80
2018-06-27T23:37:11.241Z,96909.11
2018-06-27T23:40:35.145Z,96902.55
2018-06-27T23:43:59.174Z,96904.77
2018-06-27T23:47:23.151Z,96906.90
2018-06-27T23:50:47.128Z,96897.27
2018-06-27T23:54:11.782Z,96894.98
2018-06-27T23:57:35.354Z,96889.62
